sensor_id;sensor_type;location;lat;lon;timestamp;temperature;humidity
5041;DHT22;2539;52.568;13.364;2022-10-15T00:00:48;13.80;99.90
5041;DHT22;2539;52.568;13.364;2022-10-15T00:03:14;13.80;99.90
5041;DHT22;2539;52.568;13.364;2022-10-15T00:05:41;13.80;99.90
5041;DHT22;2539;52.568;13.364;2022-10-15T00:08:09;13.80;99.90
5041;DHT22;2539;52.568;13.364;2022-10-15T00:10:36;13.70;99.90
5041;DHT22;2539;52.568;13.364;2022-10-15T00:13:03;13.80;99.90
5041;DHT22;2539;52.568;13.364;2022-10-15T00:15:30;13.70;99.90
5041;DHT22;2539;52.568;13.364;2022-10-15T00:17:57;13.70;99.90
5041;DHT22;2539;52.568;13.364;2022-10-15T00:20:23;13.70;99.90
5041;DHT22;2539;52.568;13.364;2022-10-15T00:22:49;13.70;99.90
5041;DHT22;2539;52.568;13.364;2022-10-15T00:25:15;13.70;99.90
5041;DHT22;2539;52.568;13.364;2022-10-15T00:27:42;13.70;99.90
5041;DHT22;2539;52.568;13.364;2022-10-15T00:30:08;13.60;99.90
5041;DHT22;2539;52.568;13.364;2022-10-15T00:32:35;13.60;99.90
5041;DHT22;2539;52.568;13.364;2022-10-15T00:35:01;13.50;99.90
5041;DHT22;2539;52.568;13.364;2022-10-15T00:37:27;13.50;99.90
5041;DHT22;2539;52.568;13.364;2022-10-15T00:39:54;13.40;99.90
5041;DHT22;2539;52.568;13.364;2022-10-15T00:42:20;13.40;99.90
5041;DHT22;2539;52.568;13.364;2022-10-15T00:44:57;13.40;99.90
5041;DHT22;2539;52.568;13.364;2022-10-15T00:47:35;13.40;99.90
5041;DHT22;2539;52.568;13.364;2022-10-15T00:55:10;13.30;99.90
5041;DHT22;2539;52.568;13.364;2022-10-15T00:57:38;13.30;99.90
5041;DHT22;2539;52.568;13.364;2022-10-15T01:00:09;13.40;99.90
5041;DHT22;2539;52.568;13.364;2022-10-15T01:02:35;13.40;99.90
5041;DHT22;2539;52.568;13.364;2022-10-15T01:05:02;13.40;99.90
5041;DHT22;2539;52.568;13.364;2022-10-15T01:07:28;13.40;99.90
5041;DHT22;2539;52.568;13.364;2022-10-15T01:09:55;13.40;99.90
5041;DHT22;2539;52.568;13.364;2022-10-15T01:15:18;13.40;99.90
5041;DHT22;2539;52.568;13.364;2022-10-15T01:18:07;13.40;99.90
5041;DHT22;2539;52.568;13.364;2022-10-15T01:20:49;13.40;99.90
5041;DHT22;2539;52.568;13.364;2022-10-15T01:23:59;13.30;99.90
5041;DHT22;2539;52.568;13.364;2022-10-15T01:26:57;13.30;99.90
5041;DHT22;2539;52.568;13.364;2022-10-15T01:32:35;13.30;99.90
5041;DHT22;2539;52.568;13.364;2022-10-15T01:38:16;13.30;99.90
5041;DHT22;2539;52.568;13.364;2022-10-15T01:40:49;13.30;99.90
5041;DHT22;2539;52.568;13.364;2022-10-15T01:43:32;13.30;99.90
5041;DHT22;2539;52.568;13.364;2022-10-15T01:46:07;13.40;99.90
5041;DHT22;2539;52.568;13.364;2022-10-15T01:48:37;13.30;99.90
5041;DHT22;2539;52.568;13.364;2022-10-15T01:51:05;13.40;99.90
5041;DHT22;2539;52.568;13.364;2022-10-15T01:53:32;13.40;99.90
5041;DHT22;2539;52.568;13.364;2022-10-15T01:56:05;13.40;99.90
5041;DHT22;2539;52.568;13.364;2022-10-15T01:58:35;13.40;99.90
5041;DHT22;2539;52.568;13.364;2022-10-15T02:01:03;13.40;99.90
5041;DHT22;2539;52.568;13.364;2022-10-15T02:03:30;13.40;99.90
5041;DHT22;2539;52.568;13.364;2022-10-15T02:06:04;13.40;99.90
5041;DHT22;2539;52.568;13.364;2022-10-15T02:08:58;13.40;99.90
5041;DHT22;2539;52.568;13.364;2022-10-15T02:11:27;13.40;99.90
5041;DHT22;2539;52.568;13.364;2022-10-15T02:13:59;13.40;99.90
5041;DHT22;2539;52.568;13.364;2022-10-15T02:16:36;13.40;99.90
5041;DHT22;2539;52.568;13.364;2022-10-15T02:19:19;13.40;99.90
5041;DHT22;2539;52.568;13.364;2022-10-15T02:21:52;13.40;99.90
5041;DHT22;2539;52.568;13.364;2022-10-15T02:24:23;13.30;99.90
5041;DHT22;2539;52.568;13.364;2022-10-15T02:26:53;13.30;99.90
5041;DHT22;2539;52.568;13.364;2022-10-15T02:29:22;13.30;99.90
5041;DHT22;2539;52.568;13.364;2022-10-15T02:31:50;13.30;99.90
5041;DHT22;2539;52.568;13.364;2022-10-15T02:34:20;13.30;99.90
5041;DHT22;2539;52.568;13.364;2022-10-15T02:36:48;13.30;99.90
5041;DHT22;2539;52.568;13.364;2022-10-15T02:39:19;13.30;99.90
5041;DHT22;2539;52.568;13.364;2022-10-15T02:41:47;13.30;99.90
5041;DHT22;2539;52.568;13.364;2022-10-15T02:44:13;13.30;99.90
5041;DHT22;2539;52.568;13.364;2022-10-15T02:46:40;13.40;99.90
5041;DHT22;2539;52.568;13.364;2022-10-15T02:49:06;13.40;99.90
5041;DHT22;2539;52.568;13.364;2022-10-15T02:51:33;13.40;99.90
5041;DHT22;2539;52.568;13.364;2022-10-15T02:54:00;13.40;99.90
5041;DHT22;2539;52.568;13.364;2022-10-15T02:56:27;13.40;99.90
5041;DHT22;2539;52.568;13.364;2022-10-15T02:58:54;13.40;99.90
5041;DHT22;2539;52.568;13.364;2022-10-15T03:01:20;13.40;99.90
5041;DHT22;2539;52.568;13.364;2022-10-15T03:03:46;13.40;99.90
5041;DHT22;2539;52.568;13.364;2022-10-15T03:06:13;13.40;99.90
5041;DHT22;2539;52.568;13.364;2022-10-15T03:08:40;13.40;99.90
5041;DHT22;2539;52.568;13.364;2022-10-15T03:11:08;13.30;99.90
5041;DHT22;2539;52.568;13.364;2022-10-15T03:13:35;13.30;99.90
5041;DHT22;2539;52.568;13.364;2022-10-15T03:16:06;13.30;99.90
5041;DHT22;2539;52.568;13.364;2022-10-15T03:18:33;13.30;99.90
5041;DHT22;2539;52.568;13.364;2022-10-15T03:20:59;13.30;99.90
5041;DHT22;2539;52.568;13.364;2022-10-15T03:23:26;13.30;99.90
5041;DHT22;2539;52.568;13.364;2022-10-15T03:25:52;13.20;99.90
5041;DHT22;2539;52.568;13.364;2022-10-15T03:28:20;13.30;99.90
5041;DHT22;2539;52.568;13.364;2022-10-15T03:30:46;13.20;99.90
5041;DHT22;2539;52.568;13.364;2022-10-15T03:33:12;13.20;99.90
5041;DHT22;2539;52.568;13.364;2022-10-15T03:35:39;13.20;99.90
5041;DHT22;2539;52.568;13.364;2022-10-15T03:38:06;13.10;99.90
5041;DHT22;2539;52.568;13.364;2022-10-15T03:40:33;13.10;99.90
5041;DHT22;2539;52.568;13.364;2022-10-15T03:43:00;13.10;99.90
5041;DHT22;2539;52.568;13.364;2022-10-15T03:45:26;13.10;99.90
5041;DHT22;2539;52.568;13.364;2022-10-15T03:47:52;13.20;99.90
5041;DHT22;2539;52.568;13.364;2022-10-15T03:50:18;13.20;99.90
5041;DHT22;2539;52.568;13.364;2022-10-15T03:52:45;13.20;99.90
5041;DHT22;2539;52.568;13.364;2022-10-15T03:55:11;13.30;99.90
5041;DHT22;2539;52.568;13.364;2022-10-15T03:57:38;13.30;99.90
5041;DHT22;2539;52.568;13.364;2022-10-15T04:00:06;13.30;99.90
5041;DHT22;2539;52.568;13.364;2022-10-15T04:02:33;13.30;99.90
5041;DHT22;2539;52.568;13.364;2022-10-15T04:04:59;13.30;99.90
5041;DHT22;2539;52.568;13.364;2022-10-15T04:07:25;13.20;99.90
5041;DHT22;2539;52.568;13.364;2022-10-15T04:09:52;13.30;99.90
5041;DHT22;2539;52.568;13.364;2022-10-15T04:12:18;13.30;99.90
5041;DHT22;2539;52.568;13.364;2022-10-15T04:14:44;13.20;99.90
5041;DHT22;2539;52.568;13.364;2022-10-15T04:17:11;13.20;99.90
5041;DHT22;2539;52.568;13.364;2022-10-15T04:19:37;13.20;99.90
5041;DHT22;2539;52.568;13.364;2022-10-15T04:22:03;13.20;99.90
5041;DHT22;2539;52.568;13.364;2022-10-15T04:24:30;13.20;99.90
5041;DHT22;2539;52.568;13.364;2022-10-15T04:26:56;13.30;99.90
5041;DHT22;2539;52.568;13.364;2022-10-15T04:29:22;13.30;99.90
5041;DHT22;2539;52.568;13.364;2022-10-15T04:31:49;13.30;99.90
5041;DHT22;2539;52.568;13.364;2022-10-15T04:34:15;13.30;99.90
5041;DHT22;2539;52.568;13.364;2022-10-15T04:36:41;13.30;99.90
5041;DHT22;2539;52.568;13.364;2022-10-15T04:39:07;13.20;99.90
5041;DHT22;2539;52.568;13.364;2022-10-15T04:41:34;13.20;99.90
5041;DHT22;2539;52.568;13.364;2022-10-15T04:44:00;13.20;99.90
5041;DHT22;2539;52.568;13.364;2022-10-15T04:46:26;13.10;99.90
5041;DHT22;2539;52.568;13.364;2022-10-15T04:48:52;13.20;99.90
5041;DHT22;2539;52.568;13.364;2022-10-15T04:51:24;13.20;99.90
5041;DHT22;2539;52.568;13.364;2022-10-15T04:53:50;13.20;99.90
5041;DHT22;2539;52.568;13.364;2022-10-15T04:56:18;13.30;99.90
5041;DHT22;2539;52.568;13.364;2022-10-15T04:58:47;13.30;99.90
5041;DHT22;2539;52.568;13.364;2022-10-15T05:01:16;13.30;99.90
5041;DHT22;2539;52.568;13.364;2022-10-15T05:03:44;13.30;99.90
5041;DHT22;2539;52.568;13.364;2022-10-15T05:06:19;13.30;99.90
5041;DHT22;2539;52.568;13.364;2022-10-15T05:08:46;13.40;99.90
5041;DHT22;2539;52.568;13.364;2022-10-15T05:11:22;13.40;99.90
5041;DHT22;2539;52.568;13.364;2022-10-15T05:13:49;13.40;99.90
5041;DHT22;2539;52.568;13.364;2022-10-15T05:16:24;13.40;99.90
5041;DHT22;2539;52.568;13.364;2022-10-15T05:18:58;13.40;99.90
5041;DHT22;2539;52.568;13.364;2022-10-15T05:21:25;13.40;99.90
5041;DHT22;2539;52.568;13.364;2022-10-15T05:23:51;13.40;99.90
5041;DHT22;2539;52.568;13.364;2022-10-15T05:26:20;13.40;99.90
5041;DHT22;2539;52.568;13.364;2022-10-15T05:28:47;13.30;99.90
5041;DHT22;2539;52.568;13.364;2022-10-15T05:31:16;13.20;99.90
5041;DHT22;2539;52.568;13.364;2022-10-15T05:33:43;13.10;99.90
5041;DHT22;2539;52.568;13.364;2022-10-15T05:38:43;12.90;99.90
5041;DHT22;2539;52.568;13.364;2022-10-15T05:41:10;12.90;99.90
5041;DHT22;2539;52.568;13.364;2022-10-15T05:43:36;12.80;99.90
5041;DHT22;2539;52.568;13.364;2022-10-15T05:46:03;12.80;99.90
5041;DHT22;2539;52.568;13.364;2022-10-15T05:48:30;12.70;99.90
5041;DHT22;2539;52.568;13.364;2022-10-15T05:51:01;12.80;99.90
5041;DHT22;2539;52.568;13.364;2022-10-15T05:53:27;12.70;99.90
5041;DHT22;2539;52.568;13.364;2022-10-15T05:55:54;12.70;99.90
5041;DHT22;2539;52.568;13.364;2022-10-15T05:58:20;12.80;99.90
5041;DHT22;2539;52.568;13.364;2022-10-15T06:00:57;12.80;99.90
5041;DHT22;2539;52.568;13.364;2022-10-15T06:03:23;12.80;99.90
5041;DHT22;2539;52.568;13.364;2022-10-15T06:05:50;12.70;99.90
5041;DHT22;2539;52.568;13.364;2022-10-15T06:08:17;12.70;99.90
5041;DHT22;2539;52.568;13.364;2022-10-15T06:10:43;12.70;99.90
5041;DHT22;2539;52.568;13.364;2022-10-15T06:13:10;12.60;99.90
5041;DHT22;2539;52.568;13.364;2022-10-15T06:15:40;12.60;99.90
5041;DHT22;2539;52.568;13.364;2022-10-15T06:18:07;12.60;99.90
5041;DHT22;2539;52.568;13.364;2022-10-15T06:20:35;12.60;99.90
5041;DHT22;2539;52.568;13.364;2022-10-15T06:23:03;12.70;99.90
5041;DHT22;2539;52.568;13.364;2022-10-15T06:25:30;12.70;99.90
5041;DHT22;2539;52.568;13.364;2022-10-15T06:28:01;12.70;99.90
5041;DHT22;2539;52.568;13.364;2022-10-15T06:30:28;12.70;99.90
5041;DHT22;2539;52.568;13.364;2022-10-15T06:32:55;12.70;99.90
5041;DHT22;2539;52.568;13.364;2022-10-15T06:35:22;12.70;99.90
5041;DHT22;2539;52.568;13.364;2022-10-15T06:37:48;12.70;99.90
5041;DHT22;2539;52.568;13.364;2022-10-15T06:40:15;12.80;99.90
5041;DHT22;2539;52.568;13.364;2022-10-15T06:42:41;12.80;99.90
5041;DHT22;2539;52.568;13.364;2022-10-15T06:45:09;12.90;99.90
5041;DHT22;2539;52.568;13.364;2022-10-15T06:47:37;13.00;99.90
5041;DHT22;2539;52.568;13.364;2022-10-15T06:50:05;13.10;99.90
5041;DHT22;2539;52.568;13.364;2022-10-15T06:52:32;13.30;99.90
5041;DHT22;2539;52.568;13.364;2022-10-15T06:54:58;13.40;99.90
5041;DHT22;2539;52.568;13.364;2022-10-15T06:57:26;13.50;99.90
5041;DHT22;2539;52.568;13.364;2022-10-15T06:59:54;13.50;99.90
5041;DHT22;2539;52.568;13.364;2022-10-15T07:02:20;13.70;99.90
5041;DHT22;2539;52.568;13.364;2022-10-15T07:04:46;13.80;99.90
5041;DHT22;2539;52.568;13.364;2022-10-15T07:07:13;13.90;99.90
5041;DHT22;2539;52.568;13.364;2022-10-15T07:09:40;14.10;99.90
5041;DHT22;2539;52.568;13.364;2022-10-15T07:12:06;14.20;99.90
5041;DHT22;2539;52.568;13.364;2022-10-15T07:14:32;14.30;99.90
5041;DHT22;2539;52.568;13.364;2022-10-15T07:16:58;14.30;99.90
5041;DHT22;2539;52.568;13.364;2022-10-15T07:19:25;14.40;99.90
5041;DHT22;2539;52.568;13.364;2022-10-15T07:21:51;14.40;99.90
5041;DHT22;2539;52.568;13.364;2022-10-15T07:24:17;14.50;99.90
5041;DHT22;2539;52.568;13.364;2022-10-15T07:26:46;14.50;99.90
5041;DHT22;2539;52.568;13.364;2022-10-15T07:29:12;14.50;99.90
5041;DHT22;2539;52.568;13.364;2022-10-15T07:31:39;14.50;99.90
5041;DHT22;2539;52.568;13.364;2022-10-15T07:34:05;14.50;99.90
5041;DHT22;2539;52.568;13.364;2022-10-15T07:36:31;14.60;99.90
5041;DHT22;2539;52.568;13.364;2022-10-15T07:38:57;14.70;99.90
5041;DHT22;2539;52.568;13.364;2022-10-15T07:41:23;14.80;99.90
5041;DHT22;2539;52.568;13.364;2022-10-15T07:43:50;15.00;99.90
5041;DHT22;2539;52.568;13.364;2022-10-15T07:46:16;15.10;99.90
5041;DHT22;2539;52.568;13.364;2022-10-15T07:48:42;15.10;99.90
5041;DHT22;2539;52.568;13.364;2022-10-15T07:51:10;15.10;99.90
5041;DHT22;2539;52.568;13.364;2022-10-15T07:53:36;15.30;99.90
5041;DHT22;2539;52.568;13.364;2022-10-15T07:56:05;15.30;99.90
5041;DHT22;2539;52.568;13.364;2022-10-15T07:58:34;15.30;99.90
5041;DHT22;2539;52.568;13.364;2022-10-15T08:01:01;15.40;99.90
5041;DHT22;2539;52.568;13.364;2022-10-15T08:03:28;15.50;99.90
5041;DHT22;2539;52.568;13.364;2022-10-15T08:05:56;15.60;99.90
5041;DHT22;2539;52.568;13.364;2022-10-15T08:08:22;15.70;99.90
5041;DHT22;2539;52.568;13.364;2022-10-15T08:10:48;15.80;99.90
5041;DHT22;2539;52.568;13.364;2022-10-15T08:13:14;15.80;99.90
5041;DHT22;2539;52.568;13.364;2022-10-15T08:15:41;15.70;99.90
5041;DHT22;2539;52.568;13.364;2022-10-15T08:18:08;15.60;99.90
5041;DHT22;2539;52.568;13.364;2022-10-15T08:20:36;15.40;99.90
5041;DHT22;2539;52.568;13.364;2022-10-15T08:23:03;15.20;99.90
5041;DHT22;2539;52.568;13.364;2022-10-15T08:25:29;15.10;99.90
5041;DHT22;2539;52.568;13.364;2022-10-15T08:27:57;15.10;99.90
5041;DHT22;2539;52.568;13.364;2022-10-15T08:30:24;15.00;99.90
5041;DHT22;2539;52.568;13.364;2022-10-15T08:32:50;15.00;99.90
5041;DHT22;2539;52.568;13.364;2022-10-15T08:35:17;15.00;99.90
5041;DHT22;2539;52.568;13.364;2022-10-15T08:37:43;15.10;99.90
5041;DHT22;2539;52.568;13.364;2022-10-15T08:40:11;15.30;99.90
5041;DHT22;2539;52.568;13.364;2022-10-15T08:42:44;15.60;99.90
5041;DHT22;2539;52.568;13.364;2022-10-15T08:45:16;15.80;99.90
5041;DHT22;2539;52.568;13.364;2022-10-15T08:47:47;16.10;99.90
5041;DHT22;2539;52.568;13.364;2022-10-15T08:52:52;16.40;99.90
5041;DHT22;2539;52.568;13.364;2022-10-15T08:55:21;16.20;99.90
5041;DHT22;2539;52.568;13.364;2022-10-15T08:58:05;16.00;99.90
5041;DHT22;2539;52.568;13.364;2022-10-15T09:00:43;16.00;99.90
5041;DHT22;2539;52.568;13.364;2022-10-15T09:05:56;16.10;99.90
5041;DHT22;2539;52.568;13.364;2022-10-15T09:11:58;16.20;99.90
5041;DHT22;2539;52.568;13.364;2022-10-15T09:14:31;16.40;99.90
5041;DHT22;2539;52.568;13.364;2022-10-15T09:17:04;16.50;99.90
5041;DHT22;2539;52.568;13.364;2022-10-15T09:19:34;16.40;99.90
5041;DHT22;2539;52.568;13.364;2022-10-15T09:22:01;16.50;99.90
5041;DHT22;2539;52.568;13.364;2022-10-15T09:24:33;16.60;99.90
5041;DHT22;2539;52.568;13.364;2022-10-15T09:29:50;17.00;99.90
5041;DHT22;2539;52.568;13.364;2022-10-15T09:32:36;17.30;99.90
5041;DHT22;2539;52.568;13.364;2022-10-15T09:35:12;17.50;99.90
5041;DHT22;2539;52.568;13.364;2022-10-15T09:37:57;17.70;99.90
5041;DHT22;2539;52.568;13.364;2022-10-15T09:43:33;17.90;99.90
5041;DHT22;2539;52.568;13.364;2022-10-15T09:46:02;18.00;99.90
5041;DHT22;2539;52.568;13.364;2022-10-15T09:48:36;18.00;99.90
5041;DHT22;2539;52.568;13.364;2022-10-15T09:51:31;18.10;99.90
5041;DHT22;2539;52.568;13.364;2022-10-15T09:54:22;18.20;99.90
5041;DHT22;2539;52.568;13.364;2022-10-15T09:56:53;18.30;99.90
5041;DHT22;2539;52.568;13.364;2022-10-15T09:59:22;18.40;99.90
5041;DHT22;2539;52.568;13.364;2022-10-15T10:01:58;18.40;99.90
5041;DHT22;2539;52.568;13.364;2022-10-15T10:04:26;18.50;99.90
5041;DHT22;2539;52.568;13.364;2022-10-15T10:06:58;18.40;99.90
5041;DHT22;2539;52.568;13.364;2022-10-15T10:09:48;18.50;99.90
5041;DHT22;2539;52.568;13.364;2022-10-15T10:12:26;18.50;99.90
5041;DHT22;2539;52.568;13.364;2022-10-15T10:14:57;18.60;99.90
5041;DHT22;2539;52.568;13.364;2022-10-15T10:17:25;18.60;99.90
5041;DHT22;2539;52.568;13.364;2022-10-15T10:20:14;18.80;99.90
5041;DHT22;2539;52.568;13.364;2022-10-15T10:22:51;18.80;99.90
5041;DHT22;2539;52.568;13.364;2022-10-15T10:25:31;18.80;99.90
5041;DHT22;2539;52.568;13.364;2022-10-15T10:28:05;18.80;99.90
5041;DHT22;2539;52.568;13.364;2022-10-15T10:33:29;18.50;99.90
5041;DHT22;2539;52.568;13.364;2022-10-15T10:35:56;18.00;99.90
5041;DHT22;2539;52.568;13.364;2022-10-15T10:38:25;18.20;99.90
5041;DHT22;2539;52.568;13.364;2022-10-15T10:40:57;17.80;99.90
5041;DHT22;2539;52.568;13.364;2022-10-15T10:43:30;17.90;99.90
5041;DHT22;2539;52.568;13.364;2022-10-15T10:46:01;18.10;99.90
5041;DHT22;2539;52.568;13.364;2022-10-15T10:48:45;18.30;99.90
5041;DHT22;2539;52.568;13.364;2022-10-15T10:51:23;18.60;99.90
5041;DHT22;2539;52.568;13.364;2022-10-15T10:53:58;18.50;99.90
5041;DHT22;2539;52.568;13.364;2022-10-15T10:56:43;18.70;99.90
5041;DHT22;2539;52.568;13.364;2022-10-15T10:59:22;18.80;99.90
5041;DHT22;2539;52.568;13.364;2022-10-15T11:01:50;18.80;99.90
5041;DHT22;2539;52.568;13.364;2022-10-15T11:04:24;18.70;99.90
5041;DHT22;2539;52.568;13.364;2022-10-15T11:12:29;19.10;99.90
5041;DHT22;2539;52.568;13.364;2022-10-15T11:26:27;19.50;99.90
5041;DHT22;2539;52.568;13.364;2022-10-15T11:29:08;19.30;99.90
5041;DHT22;2539;52.568;13.364;2022-10-15T11:37:59;19.80;99.90
5041;DHT22;2539;52.568;13.364;2022-10-15T11:46:49;19.60;99.90
5041;DHT22;2539;52.568;13.364;2022-10-15T11:49:31;19.40;99.90
5041;DHT22;2539;52.568;13.364;2022-10-15T11:55:55;19.30;99.90
5041;DHT22;2539;52.568;13.364;2022-10-15T11:58:28;19.30;99.90
5041;DHT22;2539;52.568;13.364;2022-10-15T12:00:59;19.00;99.90
5041;DHT22;2539;52.568;13.364;2022-10-15T12:03:30;18.80;99.90
5041;DHT22;2539;52.568;13.364;2022-10-15T12:06:02;18.70;99.90
5041;DHT22;2539;52.568;13.364;2022-10-15T12:08:33;18.40;99.90
5041;DHT22;2539;52.568;13.364;2022-10-15T12:14:24;18.20;99.90
5041;DHT22;2539;52.568;13.364;2022-10-15T12:17:02;18.40;99.90
5041;DHT22;2539;52.568;13.364;2022-10-15T12:19:37;18.60;99.90
5041;DHT22;2539;52.568;13.364;2022-10-15T12:22:09;18.70;99.90
5041;DHT22;2539;52.568;13.364;2022-10-15T12:27:27;18.90;99.90
5041;DHT22;2539;52.568;13.364;2022-10-15T12:32:39;19.20;99.90
5041;DHT22;2539;52.568;13.364;2022-10-15T12:35:19;19.30;99.90
5041;DHT22;2539;52.568;13.364;2022-10-15T12:37:47;19.30;99.90
5041;DHT22;2539;52.568;13.364;2022-10-15T12:42:58;19.10;99.90
5041;DHT22;2539;52.568;13.364;2022-10-15T12:45:33;19.20;99.90
5041;DHT22;2539;52.568;13.364;2022-10-15T12:50:32;19.40;99.90
5041;DHT22;2539;52.568;13.364;2022-10-15T12:53:03;19.40;99.90
5041;DHT22;2539;52.568;13.364;2022-10-15T12:55:35;19.50;99.90
5041;DHT22;2539;52.568;13.364;2022-10-15T13:00:39;19.50;99.90
5041;DHT22;2539;52.568;13.364;2022-10-15T13:05:44;19.50;99.90
5041;DHT22;2539;52.568;13.364;2022-10-15T13:08:15;19.60;99.90
5041;DHT22;2539;52.568;13.364;2022-10-15T13:10:48;19.60;99.90
5041;DHT22;2539;52.568;13.364;2022-10-15T13:13:18;19.70;99.90
5041;DHT22;2539;52.568;13.364;2022-10-15T13:15:58;19.50;99.90
5041;DHT22;2539;52.568;13.364;2022-10-15T13:18:28;19.40;99.90
5041;DHT22;2539;52.568;13.364;2022-10-15T13:20:55;19.30;99.90
5041;DHT22;2539;52.568;13.364;2022-10-15T13:23:30;19.40;99.90
5041;DHT22;2539;52.568;13.364;2022-10-15T13:26:21;19.40;99.90
5041;DHT22;2539;52.568;13.364;2022-10-15T13:28:50;19.30;99.90
5041;DHT22;2539;52.568;13.364;2022-10-15T13:31:29;19.40;99.90
5041;DHT22;2539;52.568;13.364;2022-10-15T13:34:32;19.50;99.90
5041;DHT22;2539;52.568;13.364;2022-10-15T13:37:03;19.50;99.90
5041;DHT22;2539;52.568;13.364;2022-10-15T13:39:39;19.50;99.90
5041;DHT22;2539;52.568;13.364;2022-10-15T13:42:15;19.50;99.90
5041;DHT22;2539;52.568;13.364;2022-10-15T13:44:54;19.60;99.90
5041;DHT22;2539;52.568;13.364;2022-10-15T13:47:31;19.50;99.90
5041;DHT22;2539;52.568;13.364;2022-10-15T13:50:23;19.40;99.90
5041;DHT22;2539;52.568;13.364;2022-10-15T13:53:13;19.20;99.90
5041;DHT22;2539;52.568;13.364;2022-10-15T13:55:46;19.10;99.90
5041;DHT22;2539;52.568;13.364;2022-10-15T13:58:20;18.90;99.90
5041;DHT22;2539;52.568;13.364;2022-10-15T14:03:28;18.60;99.90
5041;DHT22;2539;52.568;13.364;2022-10-15T14:06:13;18.40;99.90
5041;DHT22;2539;52.568;13.364;2022-10-15T14:08:41;18.40;99.90
5041;DHT22;2539;52.568;13.364;2022-10-15T14:11:11;18.50;99.90
5041;DHT22;2539;52.568;13.364;2022-10-15T14:13:46;18.60;99.90
5041;DHT22;2539;52.568;13.364;2022-10-15T14:16:23;18.90;99.90
5041;DHT22;2539;52.568;13.364;2022-10-15T14:19:08;19.00;99.90
5041;DHT22;2539;52.568;13.364;2022-10-15T14:21:36;19.00;99.90
5041;DHT22;2539;52.568;13.364;2022-10-15T14:24:18;18.90;99.90
5041;DHT22;2539;52.568;13.364;2022-10-15T14:26:45;18.70;99.90
5041;DHT22;2539;52.568;13.364;2022-10-15T14:29:18;18.60;99.90
5041;DHT22;2539;52.568;13.364;2022-10-15T14:31:47;18.50;99.90
5041;DHT22;2539;52.568;13.364;2022-10-15T14:34:27;18.40;99.90
5041;DHT22;2539;52.568;13.364;2022-10-15T14:36:53;18.40;99.90
5041;DHT22;2539;52.568;13.364;2022-10-15T14:39:30;18.50;99.90
5041;DHT22;2539;52.568;13.364;2022-10-15T14:42:05;18.60;99.90
5041;DHT22;2539;52.568;13.364;2022-10-15T14:44:46;18.70;99.90
5041;DHT22;2539;52.568;13.364;2022-10-15T14:47:31;18.80;99.90
5041;DHT22;2539;52.568;13.364;2022-10-15T14:49:59;18.80;99.90
5041;DHT22;2539;52.568;13.364;2022-10-15T14:52:27;18.80;99.90
5041;DHT22;2539;52.568;13.364;2022-10-15T14:55:07;18.70;99.90
5041;DHT22;2539;52.568;13.364;2022-10-15T14:57:40;18.80;99.90
5041;DHT22;2539;52.568;13.364;2022-10-15T15:00:28;18.70;99.90
5041;DHT22;2539;52.568;13.364;2022-10-15T15:02:57;18.60;99.90
5041;DHT22;2539;52.568;13.364;2022-10-15T15:05:25;18.40;99.90
5041;DHT22;2539;52.568;13.364;2022-10-15T15:07:52;18.30;99.90
5041;DHT22;2539;52.568;13.364;2022-10-15T15:10:19;18.20;99.90
5041;DHT22;2539;52.568;13.364;2022-10-15T15:12:52;18.10;99.90
5041;DHT22;2539;52.568;13.364;2022-10-15T15:15:21;18.00;99.90
5041;DHT22;2539;52.568;13.364;2022-10-15T15:17:48;18.00;99.90
5041;DHT22;2539;52.568;13.364;2022-10-15T15:20:15;18.00;99.90
5041;DHT22;2539;52.568;13.364;2022-10-15T15:22:47;17.90;99.90
5041;DHT22;2539;52.568;13.364;2022-10-15T15:25:30;17.90;99.90
5041;DHT22;2539;52.568;13.364;2022-10-15T15:27:59;17.90;99.90
5041;DHT22;2539;52.568;13.364;2022-10-15T15:30:28;17.90;99.90
5041;DHT22;2539;52.568;13.364;2022-10-15T15:32:55;17.90;99.90
5041;DHT22;2539;52.568;13.364;2022-10-15T15:35:40;17.80;99.90
5041;DHT22;2539;52.568;13.364;2022-10-15T15:38:10;17.80;99.90
5041;DHT22;2539;52.568;13.364;2022-10-15T15:40:37;17.70;99.90
5041;DHT22;2539;52.568;13.364;2022-10-15T15:43:03;17.70;99.90
5041;DHT22;2539;52.568;13.364;2022-10-15T15:45:29;17.70;99.90
5041;DHT22;2539;52.568;13.364;2022-10-15T15:47:56;17.60;99.90
5041;DHT22;2539;52.568;13.364;2022-10-15T15:50:24;17.60;99.90
5041;DHT22;2539;52.568;13.364;2022-10-15T15:52:50;17.50;99.90
5041;DHT22;2539;52.568;13.364;2022-10-15T15:55:17;17.40;99.90
5041;DHT22;2539;52.568;13.364;2022-10-15T15:57:43;17.20;99.90
5041;DHT22;2539;52.568;13.364;2022-10-15T16:00:11;17.10;99.90
5041;DHT22;2539;52.568;13.364;2022-10-15T16:02:37;16.90;99.90
5041;DHT22;2539;52.568;13.364;2022-10-15T16:05:05;16.80;99.90
5041;DHT22;2539;52.568;13.364;2022-10-15T16:07:32;16.70;99.90
5041;DHT22;2539;52.568;13.364;2022-10-15T16:10:02;16.60;99.90
5041;DHT22;2539;52.568;13.364;2022-10-15T16:12:31;16.50;99.90
5041;DHT22;2539;52.568;13.364;2022-10-15T16:14:59;16.40;99.90
5041;DHT22;2539;52.568;13.364;2022-10-15T16:17:26;16.30;99.90
5041;DHT22;2539;52.568;13.364;2022-10-15T16:19:52;16.30;99.90
5041;DHT22;2539;52.568;13.364;2022-10-15T16:22:18;16.20;99.90
5041;DHT22;2539;52.568;13.364;2022-10-15T16:24:45;16.10;99.90
5041;DHT22;2539;52.568;13.364;2022-10-15T16:27:11;16.00;99.90
5041;DHT22;2539;52.568;13.364;2022-10-15T16:29:37;16.00;99.90
5041;DHT22;2539;52.568;13.364;2022-10-15T16:32:04;15.90;99.90
5041;DHT22;2539;52.568;13.364;2022-10-15T16:34:30;15.90;99.90
5041;DHT22;2539;52.568;13.364;2022-10-15T16:36:56;15.80;99.90
5041;DHT22;2539;52.568;13.364;2022-10-15T16:39:23;15.80;99.90
5041;DHT22;2539;52.568;13.364;2022-10-15T16:41:49;15.70;99.90
5041;DHT22;2539;52.568;13.364;2022-10-15T16:44:15;15.70;99.90
5041;DHT22;2539;52.568;13.364;2022-10-15T16:46:42;15.60;99.90
5041;DHT22;2539;52.568;13.364;2022-10-15T16:49:09;15.60;99.90
5041;DHT22;2539;52.568;13.364;2022-10-15T16:51:35;15.50;99.90
5041;DHT22;2539;52.568;13.364;2022-10-15T16:54:02;15.50;99.90
5041;DHT22;2539;52.568;13.364;2022-10-15T16:56:29;15.40;99.90
5041;DHT22;2539;52.568;13.364;2022-10-15T16:58:56;15.40;99.90
5041;DHT22;2539;52.568;13.364;2022-10-15T17:01:27;15.40;99.90
5041;DHT22;2539;52.568;13.364;2022-10-15T17:03:54;15.30;99.90
5041;DHT22;2539;52.568;13.364;2022-10-15T17:06:27;15.30;99.90
5041;DHT22;2539;52.568;13.364;2022-10-15T17:08:55;15.30;99.90
5041;DHT22;2539;52.568;13.364;2022-10-15T17:11:37;15.20;99.90
5041;DHT22;2539;52.568;13.364;2022-10-15T17:14:10;15.20;99.90
5041;DHT22;2539;52.568;13.364;2022-10-15T17:16:39;15.10;99.90
5041;DHT22;2539;52.568;13.364;2022-10-15T17:19:06;15.10;99.90
5041;DHT22;2539;52.568;13.364;2022-10-15T17:21:32;15.10;99.90
5041;DHT22;2539;52.568;13.364;2022-10-15T17:24:00;15.10;99.90
5041;DHT22;2539;52.568;13.364;2022-10-15T17:26:29;15.10;99.90
5041;DHT22;2539;52.568;13.364;2022-10-15T17:28:58;15.10;99.90
5041;DHT22;2539;52.568;13.364;2022-10-15T17:31:25;15.10;99.90
5041;DHT22;2539;52.568;13.364;2022-10-15T17:33:57;15.10;99.90